createdAt,value
2022-12-03T08:14:25.536Z,2.72
2022-12-03T08:19:22.683Z,2.72
2022-12-03T08:24:20.893Z,2.80
2022-12-03T09:01:36.869Z,2.78
2022-12-03T09:06:36.739Z,2.88
2022-12-03T09:11:33.246Z,3.08
2022-12-03T09:59:23.107Z,3.58
2022-12-03T10:09:34.795Z,3.45
2022-12-03T12:49:51.733Z,3.67
2022-12-03T14:37:46.367Z,3.65
2022-12-03T14:42:43.009Z,3.60
2022-12-03T14:47:39.589Z,3.52
2022-12-03T14:52:36.578Z,3.47
2022-12-03T14:57:32.983Z,3.46
2022-12-03T15:02:30.381Z,3.42
2022-12-03T15:07:27.164Z,3.43
2022-12-03T15:12:24.073Z,3.47
2022-12-03T15:17:29.565Z,3.47
2022-12-03T15:22:28.057Z,3.51
2022-12-03T15:27:26.356Z,3.39
2022-12-03T15:32:26.289Z,3.41
2022-12-03T15:37:27.703Z,3.36
2022-12-03T15:42:28.107Z,3.41
2022-12-03T15:47:26.172Z,3.48
2022-12-03T15:52:23.381Z,3.47
2022-12-03T15:57:20.787Z,3.43
2022-12-03T16:02:22.534Z,3.35
2022-12-03T16:07:19.747Z,3.21
2022-12-03T16:12:17.808Z,3.12
2022-12-03T16:17:14.388Z,3.05
2022-12-03T16:22:12.231Z,3.01
2022-12-03T16:32:35.321Z,2.97
2022-12-03T16:37:31.845Z,3.00
2022-12-03T16:42:28.407Z,2.97
2022-12-03T16:47:30.750Z,2.95
2022-12-03T16:52:34.644Z,2.94
2022-12-03T16:57:47.220Z,2.92
2022-12-03T17:02:46.986Z,2.77
2022-12-03T17:07:50.119Z,2.92
2022-12-03T17:13:08.872Z,2.88
2022-12-03T17:18:08.218Z,2.79
2022-12-03T17:23:15.554Z,3.00
2022-12-03T17:28:15.749Z,3.03
2022-12-03T17:33:12.881Z,3.03
2022-12-03T17:38:10.051Z,3.12
2022-12-03T17:43:10.323Z,3.03
2022-12-03T17:48:12.672Z,3.05
2022-12-03T17:53:11.535Z,3.20
2022-12-03T17:58:09.105Z,3.20
2022-12-03T18:03:05.757Z,3.21
2022-12-03T18:08:02.412Z,3.21
2022-12-03T18:13:14.074Z,3.25
2022-12-03T18:18:11.212Z,3.28
2022-12-03T18:23:08.861Z,3.27
2022-12-03T18:28:05.366Z,3.33
2022-12-03T18:33:01.929Z,3.29
2022-12-03T18:37:58.522Z,3.24
2022-12-03T18:42:56.080Z,3.22
2022-12-03T18:47:52.717Z,3.18
2022-12-03T18:52:49.333Z,3.17
2022-12-03T18:58:04.136Z,3.14
2022-12-03T19:03:04.245Z,3.09
2022-12-03T19:08:01.763Z,3.08
2022-12-03T19:12:58.453Z,3.09
2022-12-03T19:17:55.077Z,3.06
2022-12-03T19:22:51.786Z,3.03
2022-12-03T19:27:50.861Z,2.99
2022-12-03T19:32:51.520Z,2.97
2022-12-03T19:37:49.076Z,2.95
2022-12-03T19:42:45.607Z,2.91
2022-12-03T19:47:42.548Z,2.88
2022-12-03T19:52:39.062Z,2.88
2022-12-03T19:57:35.579Z,2.85
2022-12-03T20:02:34.312Z,2.80
2022-12-03T20:07:31.046Z,2.78
2022-12-03T20:12:27.622Z,2.75
2022-12-03T20:17:24.295Z,2.73
2022-12-03T20:22:20.905Z,2.65
2022-12-03T20:27:22.662Z,2.56
2022-12-03T20:32:19.766Z,2.57
2022-12-03T20:37:19.358Z,2.54
2022-12-03T20:42:15.922Z,2.54
2022-12-03T20:47:12.539Z,2.56
2022-12-03T20:52:09.112Z,2.52
2022-12-03T20:57:05.636Z,2.46
2022-12-03T21:02:02.334Z,2.48
2022-12-03T21:06:59.056Z,2.44
2022-12-03T21:11:55.536Z,2.46
2022-12-03T21:17:07.820Z,2.45
2022-12-03T21:22:06.233Z,2.37
2022-12-03T21:27:03.066Z,2.36
2022-12-03T21:31:59.930Z,2.36
2022-12-03T21:36:56.430Z,2.28
2022-12-03T21:42:34.719Z,2.27
2022-12-03T21:47:14.226Z,2.28
2022-12-03T21:52:12.306Z,2.28
2022-12-03T21:57:08.965Z,2.27
2022-12-03T22:02:05.816Z,2.27
2022-12-03T22:07:03.415Z,2.25
2022-12-03T22:12:01.325Z,2.24
2022-12-03T22:16:57.856Z,2.19
2022-12-03T22:21:55.446Z,2.15
2022-12-03T22:26:53.595Z,2.16
2022-12-03T22:31:50.271Z,2.09
2022-12-03T22:36:47.049Z,2.11
2022-12-03T22:41:43.717Z,2.06
2022-12-03T22:46:40.367Z,2.09
2022-12-03T22:51:38.201Z,2.14
2022-12-03T22:56:36.013Z,2.08
2022-12-03T23:01:38.169Z,2.13
2022-12-03T23:06:36.106Z,2.17
2022-12-03T23:11:33.237Z,2.13
2022-12-03T23:16:30.658Z,2.07
2022-12-03T23:21:30.650Z,2.03
2022-12-03T23:26:27.968Z,2.08
2022-12-03T23:31:26.212Z,2.10
2022-12-03T23:36:24.872Z,2.11
2022-12-03T23:41:23.322Z,2.07
2022-12-03T23:46:22.198Z,2.01
2022-12-03T23:51:24.108Z,1.96
2022-12-03T23:56:23.909Z,1.90
